Air Resources Laboratory banner image
Air Resources Laboratory web site National Oceanic and Atmospheric Administration (NOAA)

nh metar


KAFN 200052Z AUTO 00000KT 10SM CLR 17/16 A3017 RMK AO2 SLP217 T01670156=
KASH 200056Z 30003KT 10SM CLR 18/17 A3014 RMK AO2 SLP216 T01780167 PNO $=
KBML 200052Z AUTO 00000KT 10SM FEW049 15/14 A3016 RMK AO2 SLP216 T01500139=
KCON 200051Z AUTO 00000KT 10SM CLR 17/15 A3014 RMK AO2 SLP206 T01670150=
KCWN 200058Z AUTO 35011G18KT 10SM BKN036 16/07 A3025 RMK AO2 SLP087 T01570071 $=
KDAW 200051Z AUTO 32003KT 10SM CLR 17/16 A3014 RMK AO2 SLP202 T01670156=
KHIE 200052Z AUTO 00000KT 10SM CLR 15/14 A3015 RMK AO2 SLP210 T01500139 $=
KLCI 200056Z AUTO 34003KT 10SM CLR 18/16 A3015 RMK AO2 SLP225 T01780156=
KLEB 200053Z 18005KT 10SM SCT055 18/14 A3012 RMK AO2 SLP192 T01780144=
KMHT 200053Z 06003KT 10SM SCT055 BKN150 BKN250 19/15 A3012 RMK AO2 SLP210
 T01940150 $=
KMWN 200051Z 04004KT 60SM FEW/// FEW/// FEW040 SCT100 SCT140 SCT160 08/02 RMK
 TPS LWR FEW040 BBLO FEW E-SE=
KPSM 200056Z 36004KT 10SM SCT060 BKN250 19/15 A3011 RMK AO2A SLP198 T01880147=